sensor_id;sensor_type;location;lat;lon;timestamp;temperature;humidity
20568;DHT22;10442;49.932;11.592;2024-02-28T00:00:59;8.00;74.00
20568;DHT22;10442;49.932;11.592;2024-02-28T00:03:28;8.00;73.90
20568;DHT22;10442;49.932;11.592;2024-02-28T00:05:55;8.00;73.90
20568;DHT22;10442;49.932;11.592;2024-02-28T00:08:23;8.00;73.80
20568;DHT22;10442;49.932;11.592;2024-02-28T00:10:51;8.00;73.80
20568;DHT22;10442;49.932;11.592;2024-02-28T00:13:18;8.00;73.80
20568;DHT22;10442;49.932;11.592;2024-02-28T00:15:49;8.00;73.70
20568;DHT22;10442;49.932;11.592;2024-02-28T00:18:16;8.00;73.60
20568;DHT22;10442;49.932;11.592;2024-02-28T00:20:45;8.00;73.50
20568;DHT22;10442;49.932;11.592;2024-02-28T00:23:12;8.10;73.60
20568;DHT22;10442;49.932;11.592;2024-02-28T00:25:39;8.00;73.50
20568;DHT22;10442;49.932;11.592;2024-02-28T00:28:07;8.00;73.40
20568;DHT22;10442;49.932;11.592;2024-02-28T00:30:35;8.00;73.40
20568;DHT22;10442;49.932;11.592;2024-02-28T00:33:03;8.00;73.40
20568;DHT22;10442;49.932;11.592;2024-02-28T00:35:32;8.00;73.30
20568;DHT22;10442;49.932;11.592;2024-02-28T00:38:06;8.00;73.30
20568;DHT22;10442;49.932;11.592;2024-02-28T00:40:33;8.00;73.40
20568;DHT22;10442;49.932;11.592;2024-02-28T00:43:01;8.00;73.50
20568;DHT22;10442;49.932;11.592;2024-02-28T00:45:29;7.90;73.40
20568;DHT22;10442;49.932;11.592;2024-02-28T00:47:56;7.80;73.40
20568;DHT22;10442;49.932;11.592;2024-02-28T00:50:25;7.80;73.60
20568;DHT22;10442;49.932;11.592;2024-02-28T00:52:53;7.80;73.70
20568;DHT22;10442;49.932;11.592;2024-02-28T00:55:20;7.70;73.70
20568;DHT22;10442;49.932;11.592;2024-02-28T00:57:50;7.70;73.90
20568;DHT22;10442;49.932;11.592;2024-02-28T01:00:19;7.60;74.00
20568;DHT22;10442;49.932;11.592;2024-02-28T01:02:48;7.60;74.10
20568;DHT22;10442;49.932;11.592;2024-02-28T01:05:15;7.60;74.10
20568;DHT22;10442;49.932;11.592;2024-02-28T01:07:43;7.60;74.10
20568;DHT22;10442;49.932;11.592;2024-02-28T01:10:10;7.60;74.20
20568;DHT22;10442;49.932;11.592;2024-02-28T01:12:38;7.60;74.00
20568;DHT22;10442;49.932;11.592;2024-02-28T01:15:06;7.60;74.10
20568;DHT22;10442;49.932;11.592;2024-02-28T01:17:34;7.50;74.10
20568;DHT22;10442;49.932;11.592;2024-02-28T01:20:02;7.50;74.00
20568;DHT22;10442;49.932;11.592;2024-02-28T01:22:31;7.40;74.10
20568;DHT22;10442;49.932;11.592;2024-02-28T01:24:59;7.40;74.20
20568;DHT22;10442;49.932;11.592;2024-02-28T01:27:26;7.30;74.30
20568;DHT22;10442;49.932;11.592;2024-02-28T01:29:54;7.20;74.40
20568;DHT22;10442;49.932;11.592;2024-02-28T01:32:22;7.20;74.40
20568;DHT22;10442;49.932;11.592;2024-02-28T01:34:49;7.10;74.50
20568;DHT22;10442;49.932;11.592;2024-02-28T01:37:17;7.10;74.70
20568;DHT22;10442;49.932;11.592;2024-02-28T01:39:44;7.00;74.70
20568;DHT22;10442;49.932;11.592;2024-02-28T01:42:11;7.00;74.80
20568;DHT22;10442;49.932;11.592;2024-02-28T01:44:46;7.00;74.90
20568;DHT22;10442;49.932;11.592;2024-02-28T01:47:14;6.90;75.00
20568;DHT22;10442;49.932;11.592;2024-02-28T01:49:44;7.00;75.00
20568;DHT22;10442;49.932;11.592;2024-02-28T01:52:13;6.90;75.10
20568;DHT22;10442;49.932;11.592;2024-02-28T01:54:41;6.90;75.20
20568;DHT22;10442;49.932;11.592;2024-02-28T01:57:09;6.80;75.20
20568;DHT22;10442;49.932;11.592;2024-02-28T01:59:37;6.80;75.20
20568;DHT22;10442;49.932;11.592;2024-02-28T02:02:06;6.80;75.40
20568;DHT22;10442;49.932;11.592;2024-02-28T02:04:33;6.80;75.30
20568;DHT22;10442;49.932;11.592;2024-02-28T02:07:01;6.70;75.30
20568;DHT22;10442;49.932;11.592;2024-02-28T02:09:29;6.70;75.40
20568;DHT22;10442;49.932;11.592;2024-02-28T02:11:56;6.70;75.60
20568;DHT22;10442;49.932;11.592;2024-02-28T02:14:25;6.60;75.60
20568;DHT22;10442;49.932;11.592;2024-02-28T02:16:53;6.60;75.80
20568;DHT22;10442;49.932;11.592;2024-02-28T02:19:20;6.60;75.80
20568;DHT22;10442;49.932;11.592;2024-02-28T02:21:54;6.60;75.80
20568;DHT22;10442;49.932;11.592;2024-02-28T02:24:25;6.60;75.90
20568;DHT22;10442;49.932;11.592;2024-02-28T02:27:00;6.60;75.90
20568;DHT22;10442;49.932;11.592;2024-02-28T02:29:28;6.60;76.00
20568;DHT22;10442;49.932;11.592;2024-02-28T02:31:56;6.50;76.10
20568;DHT22;10442;49.932;11.592;2024-02-28T02:34:24;6.50;76.10
20568;DHT22;10442;49.932;11.592;2024-02-28T02:36:51;6.50;76.40
20568;DHT22;10442;49.932;11.592;2024-02-28T02:39:19;6.60;76.70
20568;DHT22;10442;49.932;11.592;2024-02-28T02:41:46;6.60;76.80
20568;DHT22;10442;49.932;11.592;2024-02-28T02:44:14;6.60;77.00
20568;DHT22;10442;49.932;11.592;2024-02-28T02:46:42;6.70;77.10
20568;DHT22;10442;49.932;11.592;2024-02-28T02:49:09;6.80;77.00
20568;DHT22;10442;49.932;11.592;2024-02-28T02:51:39;6.80;76.90
20568;DHT22;10442;49.932;11.592;2024-02-28T02:54:06;6.90;76.90
20568;DHT22;10442;49.932;11.592;2024-02-28T02:56:34;6.90;76.70
20568;DHT22;10442;49.932;11.592;2024-02-28T02:59:02;7.00;76.60
20568;DHT22;10442;49.932;11.592;2024-02-28T03:01:29;7.10;76.60
20568;DHT22;10442;49.932;11.592;2024-02-28T03:03:57;7.10;76.50
20568;DHT22;10442;49.932;11.592;2024-02-28T03:06:26;7.20;76.40
20568;DHT22;10442;49.932;11.592;2024-02-28T03:08:54;7.20;76.40
20568;DHT22;10442;49.932;11.592;2024-02-28T03:11:21;7.30;76.30
20568;DHT22;10442;49.932;11.592;2024-02-28T03:13:49;7.30;76.20
20568;DHT22;10442;49.932;11.592;2024-02-28T03:16:16;7.40;76.10
20568;DHT22;10442;49.932;11.592;2024-02-28T03:18:44;7.40;76.00
20568;DHT22;10442;49.932;11.592;2024-02-28T03:21:11;7.50;75.90
20568;DHT22;10442;49.932;11.592;2024-02-28T03:23:41;7.50;75.80
20568;DHT22;10442;49.932;11.592;2024-02-28T03:26:08;7.60;75.80
20568;DHT22;10442;49.932;11.592;2024-02-28T03:28:36;7.60;75.70
20568;DHT22;10442;49.932;11.592;2024-02-28T03:31:04;7.60;75.70
20568;DHT22;10442;49.932;11.592;2024-02-28T03:33:31;7.70;75.60
20568;DHT22;10442;49.932;11.592;2024-02-28T03:36:02;7.70;75.50
20568;DHT22;10442;49.932;11.592;2024-02-28T03:38:31;7.70;75.40
20568;DHT22;10442;49.932;11.592;2024-02-28T03:41:02;7.70;75.20
20568;DHT22;10442;49.932;11.592;2024-02-28T03:43:31;7.80;75.30
20568;DHT22;10442;49.932;11.592;2024-02-28T03:45:58;7.80;75.20
20568;DHT22;10442;49.932;11.592;2024-02-28T03:48:26;7.90;75.30
20568;DHT22;10442;49.932;11.592;2024-02-28T03:50:55;7.90;75.10
20568;DHT22;10442;49.932;11.592;2024-02-28T03:53:22;7.90;75.00
20568;DHT22;10442;49.932;11.592;2024-02-28T03:55:50;7.90;74.90
20568;DHT22;10442;49.932;11.592;2024-02-28T03:58:18;7.90;74.80
20568;DHT22;10442;49.932;11.592;2024-02-28T04:00:45;7.90;74.80
20568;DHT22;10442;49.932;11.592;2024-02-28T04:03:15;7.90;74.80
20568;DHT22;10442;49.932;11.592;2024-02-28T04:05:44;7.90;74.80
20568;DHT22;10442;49.932;11.592;2024-02-28T04:08:12;7.90;74.80
20568;DHT22;10442;49.932;11.592;2024-02-28T04:10:40;8.00;74.90
20568;DHT22;10442;49.932;11.592;2024-02-28T04:13:08;8.00;74.90
20568;DHT22;10442;49.932;11.592;2024-02-28T04:15:35;8.00;75.00
20568;DHT22;10442;49.932;11.592;2024-02-28T04:18:04;8.00;74.90
20568;DHT22;10442;49.932;11.592;2024-02-28T04:20:32;8.00;74.90
20568;DHT22;10442;49.932;11.592;2024-02-28T04:23:00;8.00;74.80
20568;DHT22;10442;49.932;11.592;2024-02-28T04:25:27;8.00;74.80
20568;DHT22;10442;49.932;11.592;2024-02-28T04:27:55;8.10;74.80
20568;DHT22;10442;49.932;11.592;2024-02-28T04:30:24;8.10;74.70
20568;DHT22;10442;49.932;11.592;2024-02-28T04:32:52;8.10;74.70
20568;DHT22;10442;49.932;11.592;2024-02-28T04:35:20;8.10;74.70
20568;DHT22;10442;49.932;11.592;2024-02-28T04:37:48;8.10;74.60
20568;DHT22;10442;49.932;11.592;2024-02-28T04:40:15;8.20;74.60
20568;DHT22;10442;49.932;11.592;2024-02-28T04:42:43;8.20;75.50
20568;DHT22;10442;49.932;11.592;2024-02-28T04:45:10;8.20;74.60
20568;DHT22;10442;49.932;11.592;2024-02-28T04:47:38;8.20;74.50
20568;DHT22;10442;49.932;11.592;2024-02-28T04:50:11;8.20;74.40
20568;DHT22;10442;49.932;11.592;2024-02-28T04:52:39;8.20;74.30
20568;DHT22;10442;49.932;11.592;2024-02-28T04:55:07;8.20;74.20
20568;DHT22;10442;49.932;11.592;2024-02-28T04:57:36;8.20;74.20
20568;DHT22;10442;49.932;11.592;2024-02-28T05:00:05;8.20;74.20
20568;DHT22;10442;49.932;11.592;2024-02-28T05:02:35;8.20;74.30
20568;DHT22;10442;49.932;11.592;2024-02-28T05:05:02;8.20;74.30
20568;DHT22;10442;49.932;11.592;2024-02-28T05:07:30;8.20;74.30
20568;DHT22;10442;49.932;11.592;2024-02-28T05:09:57;8.20;74.30
20568;DHT22;10442;49.932;11.592;2024-02-28T05:12:25;8.20;74.30
20568;DHT22;10442;49.932;11.592;2024-02-28T05:14:53;8.20;74.20
20568;DHT22;10442;49.932;11.592;2024-02-28T05:17:22;8.20;74.30
20568;DHT22;10442;49.932;11.592;2024-02-28T05:19:49;8.20;74.30
20568;DHT22;10442;49.932;11.592;2024-02-28T05:22:17;8.20;74.30
20568;DHT22;10442;49.932;11.592;2024-02-28T05:24:48;8.20;74.30
20568;DHT22;10442;49.932;11.592;2024-02-28T05:27:18;8.20;74.30
20568;DHT22;10442;49.932;11.592;2024-02-28T05:29:45;8.20;75.10
20568;DHT22;10442;49.932;11.592;2024-02-28T05:32:14;8.20;74.30
20568;DHT22;10442;49.932;11.592;2024-02-28T05:34:42;8.20;74.20
20568;DHT22;10442;49.932;11.592;2024-02-28T05:37:10;8.20;74.30
20568;DHT22;10442;49.932;11.592;2024-02-28T05:39:37;8.20;74.30
20568;DHT22;10442;49.932;11.592;2024-02-28T05:42:05;8.20;74.40
20568;DHT22;10442;49.932;11.592;2024-02-28T05:44:33;8.20;74.40
20568;DHT22;10442;49.932;11.592;2024-02-28T05:47:01;8.20;74.50
20568;DHT22;10442;49.932;11.592;2024-02-28T05:49:29;8.20;74.50
20568;DHT22;10442;49.932;11.592;2024-02-28T05:51:57;8.20;74.60
20568;DHT22;10442;49.932;11.592;2024-02-28T05:54:25;8.20;74.60
20568;DHT22;10442;49.932;11.592;2024-02-28T05:56:55;8.20;74.70
20568;DHT22;10442;49.932;11.592;2024-02-28T05:59:23;8.20;74.60
20568;DHT22;10442;49.932;11.592;2024-02-28T06:01:52;8.10;74.60
20568;DHT22;10442;49.932;11.592;2024-02-28T06:04:20;8.20;74.70
20568;DHT22;10442;49.932;11.592;2024-02-28T06:06:47;8.20;74.70
20568;DHT22;10442;49.932;11.592;2024-02-28T06:09:16;8.10;74.60
20568;DHT22;10442;49.932;11.592;2024-02-28T06:11:43;8.10;74.60
20568;DHT22;10442;49.932;11.592;2024-02-28T06:14:11;8.20;74.70
20568;DHT22;10442;49.932;11.592;2024-02-28T06:16:39;8.20;74.70
20568;DHT22;10442;49.932;11.592;2024-02-28T06:19:06;8.10;74.60
20568;DHT22;10442;49.932;11.592;2024-02-28T06:21:34;8.20;74.70
20568;DHT22;10442;49.932;11.592;2024-02-28T06:24:01;8.20;74.70
20568;DHT22;10442;49.932;11.592;2024-02-28T06:26:29;8.20;74.80
20568;DHT22;10442;49.932;11.592;2024-02-28T06:28:59;8.20;74.80
20568;DHT22;10442;49.932;11.592;2024-02-28T06:31:29;8.20;74.90
20568;DHT22;10442;49.932;11.592;2024-02-28T06:33:59;8.20;74.80
20568;DHT22;10442;49.932;11.592;2024-02-28T06:36:28;8.30;74.90
20568;DHT22;10442;49.932;11.592;2024-02-28T06:38:57;8.30;75.00
20568;DHT22;10442;49.932;11.592;2024-02-28T06:41:25;8.30;75.00
20568;DHT22;10442;49.932;11.592;2024-02-28T06:43:52;8.30;75.00
20568;DHT22;10442;49.932;11.592;2024-02-28T06:46:20;8.40;75.00
20568;DHT22;10442;49.932;11.592;2024-02-28T06:48:48;8.40;75.00
20568;DHT22;10442;49.932;11.592;2024-02-28T06:51:17;8.40;75.00
20568;DHT22;10442;49.932;11.592;2024-02-28T06:53:46;8.40;74.70
20568;DHT22;10442;49.932;11.592;2024-02-28T06:56:14;8.40;74.60
20568;DHT22;10442;49.932;11.592;2024-02-28T06:58:42;8.50;74.70
20568;DHT22;10442;49.932;11.592;2024-02-28T07:01:09;8.50;74.70
20568;DHT22;10442;49.932;11.592;2024-02-28T07:03:37;8.50;74.60
20568;DHT22;10442;49.932;11.592;2024-02-28T07:06:05;8.50;74.40
20568;DHT22;10442;49.932;11.592;2024-02-28T07:08:33;8.50;74.40
20568;DHT22;10442;49.932;11.592;2024-02-28T07:11:00;8.50;74.40
20568;DHT22;10442;49.932;11.592;2024-02-28T07:13:29;8.50;74.40
20568;DHT22;10442;49.932;11.592;2024-02-28T07:15:58;8.50;74.30
20568;DHT22;10442;49.932;11.592;2024-02-28T07:18:27;8.60;74.30
20568;DHT22;10442;49.932;11.592;2024-02-28T07:20:58;8.60;74.20
20568;DHT22;10442;49.932;11.592;2024-02-28T07:23:27;8.60;74.20
20568;DHT22;10442;49.932;11.592;2024-02-28T07:25:56;8.60;74.20
20568;DHT22;10442;49.932;11.592;2024-02-28T07:28:27;8.70;74.00
20568;DHT22;10442;49.932;11.592;2024-02-28T07:30:55;8.70;73.90
20568;DHT22;10442;49.932;11.592;2024-02-28T07:33:23;8.80;73.90
20568;DHT22;10442;49.932;11.592;2024-02-28T07:35:52;8.80;73.80
20568;DHT22;10442;49.932;11.592;2024-02-28T07:38:20;8.90;73.70
20568;DHT22;10442;49.932;11.592;2024-02-28T07:40:48;8.90;73.30
20568;DHT22;10442;49.932;11.592;2024-02-28T07:43:19;9.00;73.10
20568;DHT22;10442;49.932;11.592;2024-02-28T07:45:46;9.00;72.70
20568;DHT22;10442;49.932;11.592;2024-02-28T07:48:16;9.00;72.60
20568;DHT22;10442;49.932;11.592;2024-02-28T07:50:45;9.00;72.40
20568;DHT22;10442;49.932;11.592;2024-02-28T07:53:13;9.00;72.50
20568;DHT22;10442;49.932;11.592;2024-02-28T07:55:43;9.00;72.50
20568;DHT22;10442;49.932;11.592;2024-02-28T07:58:10;9.00;72.50
20568;DHT22;10442;49.932;11.592;2024-02-28T08:00:39;9.10;72.60
20568;DHT22;10442;49.932;11.592;2024-02-28T08:03:09;9.10;72.50
20568;DHT22;10442;49.932;11.592;2024-02-28T08:05:37;9.10;72.50
20568;DHT22;10442;49.932;11.592;2024-02-28T08:08:06;9.20;72.50
20568;DHT22;10442;49.932;11.592;2024-02-28T08:10:36;9.20;72.60
20568;DHT22;10442;49.932;11.592;2024-02-28T08:13:04;9.30;72.60
20568;DHT22;10442;49.932;11.592;2024-02-28T08:15:32;9.30;72.30
20568;DHT22;10442;49.932;11.592;2024-02-28T08:18:00;9.40;72.20
20568;DHT22;10442;49.932;11.592;2024-02-28T08:20:29;9.40;72.20
20568;DHT22;10442;49.932;11.592;2024-02-28T08:22:56;9.50;71.60
20568;DHT22;10442;49.932;11.592;2024-02-28T08:25:26;9.50;71.40
20568;DHT22;10442;49.932;11.592;2024-02-28T08:27:53;9.50;71.40
20568;DHT22;10442;49.932;11.592;2024-02-28T08:30:21;9.50;71.30
20568;DHT22;10442;49.932;11.592;2024-02-28T08:32:48;9.60;71.50
20568;DHT22;10442;49.932;11.592;2024-02-28T08:35:18;9.60;71.50
20568;DHT22;10442;49.932;11.592;2024-02-28T08:37:46;9.60;71.10
20568;DHT22;10442;49.932;11.592;2024-02-28T08:40:15;9.70;71.00
20568;DHT22;10442;49.932;11.592;2024-02-28T08:42:42;9.70;71.00
20568;DHT22;10442;49.932;11.592;2024-02-28T08:45:10;9.70;70.90
20568;DHT22;10442;49.932;11.592;2024-02-28T08:47:38;9.70;70.70
20568;DHT22;10442;49.932;11.592;2024-02-28T08:50:08;9.70;70.50
20568;DHT22;10442;49.932;11.592;2024-02-28T08:52:37;9.70;70.60
20568;DHT22;10442;49.932;11.592;2024-02-28T08:55:05;9.70;70.40
20568;DHT22;10442;49.932;11.592;2024-02-28T08:57:33;9.70;70.40
20568;DHT22;10442;49.932;11.592;2024-02-28T09:00:02;9.70;70.40
20568;DHT22;10442;49.932;11.592;2024-02-28T09:02:31;9.70;70.30
20568;DHT22;10442;49.932;11.592;2024-02-28T09:04:58;9.70;70.20
20568;DHT22;10442;49.932;11.592;2024-02-28T09:07:26;9.70;70.30
20568;DHT22;10442;49.932;11.592;2024-02-28T09:09:54;9.70;70.40
20568;DHT22;10442;49.932;11.592;2024-02-28T09:12:23;9.70;70.30
20568;DHT22;10442;49.932;11.592;2024-02-28T09:14:51;9.70;70.50
20568;DHT22;10442;49.932;11.592;2024-02-28T09:17:24;9.70;70.60
20568;DHT22;10442;49.932;11.592;2024-02-28T09:19:53;9.70;70.50
20568;DHT22;10442;49.932;11.592;2024-02-28T09:22:22;9.80;70.30
20568;DHT22;10442;49.932;11.592;2024-02-28T09:24:51;9.80;70.00
20568;DHT22;10442;49.932;11.592;2024-02-28T09:27:20;9.80;69.80
20568;DHT22;10442;49.932;11.592;2024-02-28T09:29:48;9.80;69.80
20568;DHT22;10442;49.932;11.592;2024-02-28T09:32:16;9.80;69.90
20568;DHT22;10442;49.932;11.592;2024-02-28T09:34:43;9.80;70.00
20568;DHT22;10442;49.932;11.592;2024-02-28T09:37:11;9.80;69.90
20568;DHT22;10442;49.932;11.592;2024-02-28T09:39:39;9.90;70.10
20568;DHT22;10442;49.932;11.592;2024-02-28T09:42:07;9.90;70.10
20568;DHT22;10442;49.932;11.592;2024-02-28T09:44:38;9.90;70.00
20568;DHT22;10442;49.932;11.592;2024-02-28T09:47:07;10.00;70.00
20568;DHT22;10442;49.932;11.592;2024-02-28T09:49:35;10.00;69.80
20568;DHT22;10442;49.932;11.592;2024-02-28T09:52:06;10.00;69.90
20568;DHT22;10442;49.932;11.592;2024-02-28T09:54:34;10.00;69.60
20568;DHT22;10442;49.932;11.592;2024-02-28T09:57:03;10.00;69.50
20568;DHT22;10442;49.932;11.592;2024-02-28T09:59:32;10.10;69.50
20568;DHT22;10442;49.932;11.592;2024-02-28T10:02:20;10.10;69.50
20568;DHT22;10442;49.932;11.592;2024-02-28T10:04:50;10.20;69.50
20568;DHT22;10442;49.932;11.592;2024-02-28T10:07:18;10.20;69.40
20568;DHT22;10442;49.932;11.592;2024-02-28T10:09:46;10.20;69.50
20568;DHT22;10442;49.932;11.592;2024-02-28T10:12:15;10.30;69.30
20568;DHT22;10442;49.932;11.592;2024-02-28T10:14:43;10.20;69.00
20568;DHT22;10442;49.932;11.592;2024-02-28T10:17:11;10.30;69.00
20568;DHT22;10442;49.932;11.592;2024-02-28T10:19:39;10.30;68.90
20568;DHT22;10442;49.932;11.592;2024-02-28T10:22:07;10.30;68.70
20568;DHT22;10442;49.932;11.592;2024-02-28T10:24:34;10.40;68.90
20568;DHT22;10442;49.932;11.592;2024-02-28T10:27:05;10.40;69.20
20568;DHT22;10442;49.932;11.592;2024-02-28T10:29:33;10.40;69.10
20568;DHT22;10442;49.932;11.592;2024-02-28T10:32:01;10.50;69.10
20568;DHT22;10442;49.932;11.592;2024-02-28T10:34:30;10.50;69.00
20568;DHT22;10442;49.932;11.592;2024-02-28T10:37:00;10.60;68.90
20568;DHT22;10442;49.932;11.592;2024-02-28T10:39:29;10.70;68.20
20568;DHT22;10442;49.932;11.592;2024-02-28T10:42:00;10.60;68.20
20568;DHT22;10442;49.932;11.592;2024-02-28T10:44:29;10.70;68.10
20568;DHT22;10442;49.932;11.592;2024-02-28T10:47:00;10.70;68.20
20568;DHT22;10442;49.932;11.592;2024-02-28T10:49:29;10.80;68.30
20568;DHT22;10442;49.932;11.592;2024-02-28T10:51:59;10.80;68.50
20568;DHT22;10442;49.932;11.592;2024-02-28T10:54:29;10.90;68.30
20568;DHT22;10442;49.932;11.592;2024-02-28T10:56:57;11.00;68.00
20568;DHT22;10442;49.932;11.592;2024-02-28T10:59:28;11.00;67.50
20568;DHT22;10442;49.932;11.592;2024-02-28T11:01:57;11.00;67.90
20568;DHT22;10442;49.932;11.592;2024-02-28T11:04:24;11.00;67.40
20568;DHT22;10442;49.932;11.592;2024-02-28T11:06:54;11.00;67.40
20568;DHT22;10442;49.932;11.592;2024-02-28T11:09:25;11.10;67.80
20568;DHT22;10442;49.932;11.592;2024-02-28T11:11:56;11.10;67.80
20568;DHT22;10442;49.932;11.592;2024-02-28T11:14:24;11.20;67.80
20568;DHT22;10442;49.932;11.592;2024-02-28T11:17:01;11.30;67.60
20568;DHT22;10442;49.932;11.592;2024-02-28T11:19:31;11.40;67.10
20568;DHT22;10442;49.932;11.592;2024-02-28T11:22:00;11.40;66.70
20568;DHT22;10442;49.932;11.592;2024-02-28T11:24:30;11.50;66.60
20568;DHT22;10442;49.932;11.592;2024-02-28T11:26:58;11.60;66.70
20568;DHT22;10442;49.932;11.592;2024-02-28T11:29:28;11.70;66.60
20568;DHT22;10442;49.932;11.592;2024-02-28T11:31:59;11.70;66.30
20568;DHT22;10442;49.932;11.592;2024-02-28T11:34:26;11.90;65.90
20568;DHT22;10442;49.932;11.592;2024-02-28T11:36:56;11.90;65.60
20568;DHT22;10442;49.932;11.592;2024-02-28T11:39:26;12.00;65.00
20568;DHT22;10442;49.932;11.592;2024-02-28T11:41:55;12.00;64.80
20568;DHT22;10442;49.932;11.592;2024-02-28T11:44:22;12.10;64.50
20568;DHT22;10442;49.932;11.592;2024-02-28T11:46:50;12.10;64.50
20568;DHT22;10442;49.932;11.592;2024-02-28T11:49:18;12.10;64.50
20568;DHT22;10442;49.932;11.592;2024-02-28T11:51:45;12.20;64.60
20568;DHT22;10442;49.932;11.592;2024-02-28T11:54:13;12.20;64.50
20568;DHT22;10442;49.932;11.592;2024-02-28T11:56:41;12.20;64.50
20568;DHT22;10442;49.932;11.592;2024-02-28T11:59:11;12.20;64.60
20568;DHT22;10442;49.932;11.592;2024-02-28T12:01:42;12.30;64.70
20568;DHT22;10442;49.932;11.592;2024-02-28T12:04:13;12.40;64.70
20568;DHT22;10442;49.932;11.592;2024-02-28T12:06:41;12.50;64.40
20568;DHT22;10442;49.932;11.592;2024-02-28T12:09:11;12.60;63.20
20568;DHT22;10442;49.932;11.592;2024-02-28T12:11:46;12.70;62.70
20568;DHT22;10442;49.932;11.592;2024-02-28T12:14:13;12.70;62.70
20568;DHT22;10442;49.932;11.592;2024-02-28T12:16:41;12.80;62.90
20568;DHT22;10442;49.932;11.592;2024-02-28T12:19:12;12.90;62.90
20568;DHT22;10442;49.932;11.592;2024-02-28T12:21:40;12.90;62.40
20568;DHT22;10442;49.932;11.592;2024-02-28T12:24:09;13.00;62.40
20568;DHT22;10442;49.932;11.592;2024-02-28T12:26:40;13.00;62.00
20568;DHT22;10442;49.932;11.592;2024-02-28T12:29:09;13.10;61.70
20568;DHT22;10442;49.932;11.592;2024-02-28T12:31:39;13.00;61.00
20568;DHT22;10442;49.932;11.592;2024-02-28T12:34:06;13.00;60.50
20568;DHT22;10442;49.932;11.592;2024-02-28T12:36:34;13.10;60.90
20568;DHT22;10442;49.932;11.592;2024-02-28T12:39:03;13.10;60.40
20568;DHT22;10442;49.932;11.592;2024-02-28T12:41:34;13.00;59.70
20568;DHT22;10442;49.932;11.592;2024-02-28T12:44:03;13.00;60.00
20568;DHT22;10442;49.932;11.592;2024-02-28T12:46:31;13.00;60.30
20568;DHT22;10442;49.932;11.592;2024-02-28T12:48:59;12.90;60.20
20568;DHT22;10442;49.932;11.592;2024-02-28T12:51:45;12.90;58.50
20568;DHT22;10442;49.932;11.592;2024-02-28T12:54:14;12.80;58.20
20568;DHT22;10442;49.932;11.592;2024-02-28T12:56:43;12.80;58.70
20568;DHT22;10442;49.932;11.592;2024-02-28T12:59:10;12.80;59.20
20568;DHT22;10442;49.932;11.592;2024-02-28T13:01:38;12.80;59.20
20568;DHT22;10442;49.932;11.592;2024-02-28T13:04:06;12.90;58.90
20568;DHT22;10442;49.932;11.592;2024-02-28T13:06:35;12.80;58.30
20568;DHT22;10442;49.932;11.592;2024-02-28T13:09:03;12.80;57.70
20568;DHT22;10442;49.932;11.592;2024-02-28T13:11:33;12.80;57.20
20568;DHT22;10442;49.932;11.592;2024-02-28T13:14:02;12.80;56.60
20568;DHT22;10442;49.932;11.592;2024-02-28T13:16:32;12.80;56.70
20568;DHT22;10442;49.932;11.592;2024-02-28T13:19:01;12.80;56.80
20568;DHT22;10442;49.932;11.592;2024-02-28T13:21:30;12.70;57.00
20568;DHT22;10442;49.932;11.592;2024-02-28T13:24:01;12.70;57.60
20568;DHT22;10442;49.932;11.592;2024-02-28T13:26:29;12.80;57.90
20568;DHT22;10442;49.932;11.592;2024-02-28T13:28:57;12.80;57.60
20568;DHT22;10442;49.932;11.592;2024-02-28T13:31:25;12.80;57.80
20568;DHT22;10442;49.932;11.592;2024-02-28T13:33:54;12.80;56.90
20568;DHT22;10442;49.932;11.592;2024-02-28T13:36:22;12.80;56.80
20568;DHT22;10442;49.932;11.592;2024-02-28T13:38:52;12.80;56.90
20568;DHT22;10442;49.932;11.592;2024-02-28T13:41:20;12.80;56.80
20568;DHT22;10442;49.932;11.592;2024-02-28T13:43:48;12.80;57.20
20568;DHT22;10442;49.932;11.592;2024-02-28T13:46:17;12.80;57.40
20568;DHT22;10442;49.932;11.592;2024-02-28T13:48:47;12.80;56.40
20568;DHT22;10442;49.932;11.592;2024-02-28T13:51:15;12.80;56.50
20568;DHT22;10442;49.932;11.592;2024-02-28T13:53:43;12.80;56.60
20568;DHT22;10442;49.932;11.592;2024-02-28T13:56:12;12.80;56.40
20568;DHT22;10442;49.932;11.592;2024-02-28T13:58:40;12.80;56.20
20568;DHT22;10442;49.932;11.592;2024-02-28T14:01:20;12.80;56.20
20568;DHT22;10442;49.932;11.592;2024-02-28T14:03:49;12.80;56.40
20568;DHT22;10442;49.932;11.592;2024-02-28T14:06:17;12.80;56.10
20568;DHT22;10442;49.932;11.592;2024-02-28T14:08:45;12.80;55.90
20568;DHT22;10442;49.932;11.592;2024-02-28T14:11:14;12.80;56.00
20568;DHT22;10442;49.932;11.592;2024-02-28T14:13:44;12.80;56.10
20568;DHT22;10442;49.932;11.592;2024-02-28T14:16:12;12.80;56.30
20568;DHT22;10442;49.932;11.592;2024-02-28T14:18:40;12.80;55.70
20568;DHT22;10442;49.932;11.592;2024-02-28T14:21:08;12.80;55.70
20568;DHT22;10442;49.932;11.592;2024-02-28T14:23:37;12.80;55.90
20568;DHT22;10442;49.932;11.592;2024-02-28T14:26:05;12.80;56.00
20568;DHT22;10442;49.932;11.592;2024-02-28T14:28:33;12.80;55.90
20568;DHT22;10442;49.932;11.592;2024-02-28T14:31:02;12.70;56.00
20568;DHT22;10442;49.932;11.592;2024-02-28T14:33:30;12.70;55.70
20568;DHT22;10442;49.932;11.592;2024-02-28T14:35:58;12.70;55.80
20568;DHT22;10442;49.932;11.592;2024-02-28T14:38:27;12.70;55.80
20568;DHT22;10442;49.932;11.592;2024-02-28T14:40:55;12.70;55.80
20568;DHT22;10442;49.932;11.592;2024-02-28T14:43:24;12.70;55.70
20568;DHT22;10442;49.932;11.592;2024-02-28T14:45:54;12.60;56.00
20568;DHT22;10442;49.932;11.592;2024-02-28T14:48:22;12.60;56.20
20568;DHT22;10442;49.932;11.592;2024-02-28T14:50:50;12.60;56.40
20568;DHT22;10442;49.932;11.592;2024-02-28T14:53:18;12.60;56.60
20568;DHT22;10442;49.932;11.592;2024-02-28T14:55:50;12.60;56.20
20568;DHT22;10442;49.932;11.592;2024-02-28T14:58:19;12.60;55.90
20568;DHT22;10442;49.932;11.592;2024-02-28T15:00:47;12.60;55.90
20568;DHT22;10442;49.932;11.592;2024-02-28T15:03:16;12.60;55.50
20568;DHT22;10442;49.932;11.592;2024-02-28T15:05:45;12.60;55.90
20568;DHT22;10442;49.932;11.592;2024-02-28T15:08:14;12.60;55.90
20568;DHT22;10442;49.932;11.592;2024-02-28T15:10:41;12.60;56.10
20568;DHT22;10442;49.932;11.592;2024-02-28T15:13:10;12.60;56.40
20568;DHT22;10442;49.932;11.592;2024-02-28T15:15:38;12.60;56.60
20568;DHT22;10442;49.932;11.592;2024-02-28T15:18:09;12.60;56.70
20568;DHT22;10442;49.932;11.592;2024-02-28T15:20:37;12.60;56.80
20568;DHT22;10442;49.932;11.592;2024-02-28T15:23:06;12.60;56.90
20568;DHT22;10442;49.932;11.592;2024-02-28T15:25:34;12.60;56.90
20568;DHT22;10442;49.932;11.592;2024-02-28T15:28:02;12.60;56.80
20568;DHT22;10442;49.932;11.592;2024-02-28T15:30:30;12.60;57.00
20568;DHT22;10442;49.932;11.592;2024-02-28T15:33:00;12.60;57.00